createdAt,value
2022-08-31T00:02:24.040Z,7.65
2022-08-31T00:04:59.140Z,8.70
2022-08-31T00:07:26.318Z,8.02
2022-08-31T00:10:00.077Z,7.22
2022-08-31T00:12:26.967Z,7.68
2022-08-31T00:15:00.036Z,9.32
2022-08-31T00:17:26.887Z,7.95
2022-08-31T00:19:53.753Z,7.13
2022-08-31T00:22:27.048Z,8.90
2022-08-31T00:24:53.947Z,6.70
2022-08-31T00:27:27.077Z,10.35
2022-08-31T00:29:53.979Z,7.75
2022-08-31T00:32:25.369Z,8.77
2022-08-31T00:35:02.046Z,12.50
2022-08-31T00:37:35.084Z,7.22
2022-08-31T00:40:08.137Z,8.25
2022-08-31T00:42:35.069Z,6.72
2022-08-31T00:45:02.059Z,8.85
2022-08-31T00:47:35.049Z,8.65
2022-08-31T00:50:04.544Z,7.32
2022-08-31T00:52:41.075Z,6.53
2022-08-31T00:55:33.385Z,7.10
2022-08-31T00:58:10.105Z,8.48
2022-08-31T01:00:37.200Z,10.07
2022-08-31T01:03:05.324Z,7.85
2022-08-31T01:05:39.075Z,12.98
2022-08-31T01:08:06.348Z,9.75
2022-08-31T01:10:39.042Z,10.80
2022-08-31T01:13:12.106Z,10.57
2022-08-31T01:15:41.951Z,8.40
2022-08-31T01:18:15.095Z,9.80
2022-08-31T01:21:08.759Z,12.10
2022-08-31T01:23:47.103Z,12.27
2022-08-31T01:26:17.642Z,7.97
2022-08-31T01:28:51.134Z,9.90
2022-08-31T01:31:45.231Z,9.00
2022-08-31T01:34:19.130Z,10.82
2022-08-31T01:36:52.099Z,8.93
2022-08-31T01:39:19.452Z,9.88
2022-08-31T01:41:46.390Z,13.25
2022-08-31T01:44:22.133Z,11.82
2022-08-31T01:46:49.251Z,11.77
2022-08-31T01:49:23.144Z,11.77
2022-08-31T01:51:50.844Z,8.50
2022-08-31T01:54:24.127Z,12.20
2022-08-31T01:56:51.161Z,8.60
2022-08-31T01:59:26.149Z,9.15
2022-08-31T02:02:01.217Z,7.75
2022-08-31T02:04:28.717Z,8.02
2022-08-31T02:07:04.129Z,9.77
2022-08-31T02:09:31.048Z,11.15
2022-08-31T02:11:57.976Z,9.25
2022-08-31T02:14:31.129Z,10.00
2022-08-31T02:16:58.034Z,7.38
2022-08-31T02:19:24.934Z,7.50
2022-08-31T02:21:58.146Z,10.38
2022-08-31T02:24:31.759Z,9.88
2022-08-31T02:27:05.124Z,10.25
2022-08-31T02:29:31.994Z,10.02
2022-08-31T02:32:05.121Z,11.15
2022-08-31T02:34:32.050Z,9.68
2022-08-31T02:36:58.930Z,10.48
2022-08-31T02:39:32.159Z,9.68
2022-08-31T02:41:59.046Z,10.00
2022-08-31T02:44:32.124Z,12.30
2022-08-31T02:47:05.159Z,13.77
2022-08-31T02:49:33.066Z,14.13
2022-08-31T02:52:06.172Z,12.32
2022-08-31T02:54:33.092Z,12.00
2022-08-31T02:57:06.138Z,9.70
2022-08-31T02:59:33.019Z,15.15
2022-08-31T03:01:59.953Z,9.15
2022-08-31T03:04:33.164Z,8.77
2022-08-31T03:07:06.161Z,8.45
2022-08-31T03:09:33.028Z,10.68
2022-08-31T03:12:07.182Z,9.48
2022-08-31T03:14:34.089Z,9.70
2022-08-31T03:17:01.045Z,10.13
2022-08-31T03:19:34.200Z,12.15
2022-08-31T03:22:01.077Z,8.80
2022-08-31T03:24:34.159Z,10.52
2022-08-31T03:27:01.037Z,11.65
2022-08-31T03:29:27.948Z,8.75
2022-08-31T03:32:01.191Z,12.65
2022-08-31T03:34:28.049Z,13.07
2022-08-31T03:37:01.179Z,9.48
2022-08-31T03:39:28.056Z,7.78
2022-08-31T03:42:01.198Z,8.60
2022-08-31T03:44:28.056Z,14.85
2022-08-31T03:47:01.194Z,8.93
2022-08-31T03:49:28.057Z,8.30
2022-08-31T03:52:01.202Z,8.45
2022-08-31T03:54:28.272Z,9.50
2022-08-31T03:57:01.174Z,8.27
2022-08-31T03:59:28.057Z,7.45
2022-08-31T04:02:01.278Z,9.25
2022-08-31T04:04:28.252Z,13.02
2022-08-31T04:06:55.177Z,10.75
2022-08-31T04:09:28.196Z,12.40
2022-08-31T04:11:55.117Z,8.50
2022-08-31T04:14:28.204Z,7.43
2022-08-31T04:16:55.050Z,7.93
2022-08-31T04:19:29.586Z,8.82
2022-08-31T04:21:58.024Z,8.20
2022-08-31T04:24:31.239Z,10.07
2022-08-31T04:26:58.249Z,8.80
2022-08-31T04:29:31.202Z,8.65
2022-08-31T04:31:58.149Z,8.35
2022-08-31T04:34:25.068Z,11.73
2022-08-31T04:36:58.227Z,10.75
2022-08-31T04:39:32.811Z,9.48
2022-08-31T04:41:59.829Z,9.40
2022-08-31T04:44:26.699Z,9.57
2022-08-31T04:47:00.238Z,10.50
2022-08-31T04:49:33.267Z,10.85
2022-08-31T04:52:00.138Z,9.55
2022-08-31T04:54:36.243Z,8.57
2022-08-31T04:57:03.803Z,9.02
2022-08-31T04:59:30.696Z,9.68
2022-08-31T05:02:04.401Z,8.65
2022-08-31T05:04:31.462Z,12.45
2022-08-31T05:06:58.369Z,11.30
2022-08-31T05:09:32.264Z,11.70
2022-08-31T05:12:05.239Z,7.72
2022-08-31T05:14:32.119Z,11.10
2022-08-31T05:17:05.260Z,9.32
2022-08-31T05:19:40.965Z,8.50
2022-08-31T05:22:14.267Z,8.65
2022-08-31T05:24:47.273Z,8.13
2022-08-31T05:27:20.288Z,7.75
2022-08-31T05:29:47.157Z,9.68
2022-08-31T05:32:20.259Z,14.80
2022-08-31T05:34:54.293Z,8.40
2022-08-31T05:37:27.251Z,11.68
2022-08-31T05:39:54.128Z,13.13
2022-08-31T05:42:21.027Z,8.68
2022-08-31T05:44:54.274Z,8.10
2022-08-31T05:47:27.262Z,10.95
2022-08-31T05:50:00.279Z,12.68
2022-08-31T05:52:27.250Z,8.98
2022-08-31T05:55:00.289Z,8.00
2022-08-31T05:57:27.172Z,8.07
2022-08-31T06:00:00.270Z,7.00
2022-08-31T06:02:27.187Z,8.30
2022-08-31T06:05:03.310Z,8.40
2022-08-31T06:07:30.306Z,7.15
2022-08-31T06:10:03.306Z,7.30
2022-08-31T06:12:30.167Z,6.50
2022-08-31T06:14:57.019Z,5.85
2022-08-31T06:17:30.297Z,6.05
2022-08-31T06:19:57.207Z,5.40
2022-08-31T06:22:25.300Z,5.28
2022-08-31T06:24:58.274Z,6.05
2022-08-31T06:27:31.308Z,5.28
2022-08-31T06:29:58.167Z,5.57
2022-08-31T06:32:31.315Z,6.18
2022-08-31T06:34:58.250Z,7.05
2022-08-31T06:37:31.319Z,5.30
2022-08-31T06:39:58.233Z,5.20
2022-08-31T06:42:25.100Z,4.25
2022-08-31T06:44:58.327Z,4.45
2022-08-31T06:47:25.244Z,4.43
2022-08-31T06:49:52.414Z,3.70
2022-08-31T06:52:25.299Z,4.30
2022-08-31T06:54:52.255Z,3.85
2022-08-31T06:57:25.322Z,4.63
2022-08-31T06:59:53.302Z,4.40
2022-08-31T07:02:27.357Z,3.97
2022-08-31T07:04:54.286Z,3.92
2022-08-31T07:07:21.149Z,3.80
2022-08-31T07:09:54.322Z,3.85
2022-08-31T07:12:21.193Z,3.53
2022-08-31T07:14:55.501Z,3.42
2022-08-31T07:17:22.426Z,3.08
2022-08-31T07:19:55.341Z,3.10
2022-08-31T07:22:28.319Z,4.00
2022-08-31T07:25:01.330Z,3.17
2022-08-31T07:27:34.365Z,4.95
2022-08-31T07:30:01.281Z,3.70
2022-08-31T07:32:28.151Z,4.45
2022-08-31T07:35:01.372Z,4.88
2022-08-31T07:37:34.364Z,5.00
2022-08-31T07:40:09.464Z,5.22
2022-08-31T07:42:39.720Z,5.05
2022-08-31T07:45:18.427Z,5.72
2022-08-31T07:47:45.472Z,5.60
2022-08-31T07:50:13.207Z,4.88
2022-08-31T07:52:53.359Z,5.72
2022-08-31T07:55:21.942Z,5.18
2022-08-31T07:57:55.349Z,5.15
2022-08-31T08:00:31.699Z,4.20
2022-08-31T08:03:05.400Z,4.68
2022-08-31T08:05:32.541Z,5.32
2022-08-31T08:08:13.928Z,5.28
2022-08-31T08:10:52.665Z,4.75
2022-08-31T08:13:20.443Z,5.07
2022-08-31T08:15:54.421Z,6.13
2022-08-31T08:18:21.357Z,5.78
2022-08-31T08:20:48.660Z,5.50
2022-08-31T08:23:29.443Z,5.65
2022-08-31T08:25:58.159Z,7.68
2022-08-31T08:28:41.603Z,7.20
2022-08-31T08:31:20.507Z,6.25
2022-08-31T08:33:47.497Z,6.43
2022-08-31T08:36:14.461Z,6.35
2022-08-31T08:38:48.442Z,6.20
2022-08-31T08:41:18.390Z,5.60
2022-08-31T08:44:04.456Z,6.25
2022-08-31T08:46:49.736Z,4.95
2022-08-31T08:49:30.402Z,4.80
2022-08-31T08:52:10.376Z,5.47
2022-08-31T08:54:46.457Z,3.30
2022-08-31T08:57:30.442Z,3.20
2022-08-31T09:00:00.524Z,3.47
2022-08-31T09:02:53.483Z,4.53
2022-08-31T09:05:35.470Z,3.97
2022-08-31T09:08:17.808Z,4.05
2022-08-31T09:11:03.479Z,5.90
2022-08-31T09:13:36.430Z,6.28
2022-08-31T09:16:37.442Z,5.15
2022-08-31T09:19:22.679Z,8.02
2022-08-31T09:22:04.432Z,8.50
2022-08-31T09:24:31.348Z,7.05
2022-08-31T09:27:07.479Z,6.03
2022-08-31T09:29:34.370Z,8.48
2022-08-31T09:32:09.152Z,8.85
2022-08-31T09:34:47.467Z,11.82
2022-08-31T09:37:32.475Z,9.55
2022-08-31T09:40:23.793Z,11.98
2022-08-31T09:43:20.613Z,15.90
2022-08-31T09:46:02.890Z,18.20
2022-08-31T09:48:51.509Z,22.90
2022-08-31T09:51:44.548Z,26.80
2022-08-31T09:54:30.463Z,19.73
2022-08-31T09:57:05.462Z,23.70
2022-08-31T09:59:35.202Z,21.85
2022-08-31T10:02:08.507Z,23.02
2022-08-31T10:04:42.573Z,27.92
2022-08-31T10:07:43.492Z,30.27
2022-08-31T10:10:28.218Z,26.30
2022-08-31T10:13:19.684Z,26.60
2022-08-31T10:15:58.771Z,27.38
2022-08-31T10:18:49.473Z,26.73
2022-08-31T10:21:46.965Z,30.98
2022-08-31T10:24:25.512Z,25.25
2022-08-31T10:27:07.481Z,26.40
2022-08-31T10:29:48.497Z,26.40
2022-08-31T10:32:49.484Z,24.20
2022-08-31T10:35:30.519Z,28.80
2022-08-31T10:38:42.485Z,25.17
2022-08-31T10:41:26.077Z,29.65
2022-08-31T10:44:20.536Z,31.75
2022-08-31T10:46:47.665Z,29.90
2022-08-31T10:49:21.621Z,22.63
2022-08-31T10:52:18.522Z,26.60
2022-08-31T10:54:57.795Z,24.05
2022-08-31T10:58:11.620Z,20.67
2022-08-31T11:01:22.519Z,21.98
2022-08-31T11:04:31.601Z,22.27
2022-08-31T11:07:10.370Z,15.05
2022-08-31T11:09:59.517Z,17.95
2022-08-31T11:12:41.640Z,14.82
2022-08-31T11:15:51.610Z,14.93
2022-08-31T11:18:55.578Z,15.20
2022-08-31T11:21:40.924Z,16.10
2022-08-31T11:24:22.583Z,13.20
2022-08-31T11:27:28.682Z,15.02
2022-08-31T11:30:09.609Z,16.05
2022-08-31T11:32:44.755Z,13.40
2022-08-31T11:35:18.599Z,13.27
2022-08-31T11:37:45.516Z,12.25
2022-08-31T11:40:19.665Z,11.80
2022-08-31T11:42:46.540Z,11.15
2022-08-31T11:45:46.639Z,11.63
2022-08-31T11:49:03.567Z,13.05
2022-08-31T11:51:44.634Z,10.88
2022-08-31T11:54:29.615Z,10.10
2022-08-31T11:56:56.618Z,6.75
2022-08-31T11:59:36.591Z,8.57
2022-08-31T12:02:22.165Z,8.15
2022-08-31T12:05:08.627Z,13.15
2022-08-31T12:07:41.650Z,8.77
2022-08-31T12:10:17.549Z,11.45
2022-08-31T12:13:16.701Z,8.80
2022-08-31T12:16:18.456Z,11.23
2022-08-31T12:19:00.650Z,7.85
2022-08-31T12:21:57.601Z,7.68
2022-08-31T12:24:30.728Z,7.55
2022-08-31T12:27:30.615Z,8.02
2022-08-31T12:30:34.901Z,6.97
2022-08-31T12:33:17.854Z,6.60
2022-08-31T12:35:45.056Z,8.57
2022-08-31T12:38:26.668Z,8.43
2022-08-31T12:40:54.851Z,7.38
2022-08-31T12:43:44.657Z,8.15
2022-08-31T12:46:45.779Z,7.18
2022-08-31T12:50:09.647Z,6.88
2022-08-31T12:53:19.736Z,5.47
2022-08-31T12:56:07.683Z,5.28
2022-08-31T12:59:11.800Z,7.30
2022-08-31T13:01:46.600Z,6.13
2022-08-31T13:04:22.671Z,7.93
2022-08-31T13:06:49.718Z,5.78
2022-08-31T13:09:40.652Z,5.65
2022-08-31T13:12:07.560Z,5.40
2022-08-31T13:14:49.644Z,5.50
2022-08-31T13:17:20.059Z,4.93
2022-08-31T13:20:03.070Z,5.47
2022-08-31T13:22:37.435Z,5.05
2022-08-31T13:25:26.680Z,4.68
2022-08-31T13:27:53.681Z,5.03
2022-08-31T13:30:28.712Z,4.68
2022-08-31T13:32:55.696Z,4.22
2022-08-31T13:35:32.710Z,5.30
2022-08-31T13:38:01.617Z,4.55
2022-08-31T13:40:34.693Z,4.50
2022-08-31T13:43:01.791Z,3.83
2022-08-31T13:45:41.686Z,5.18
2022-08-31T13:48:19.685Z,4.07
2022-08-31T13:50:56.755Z,4.05
2022-08-31T13:53:59.767Z,4.00
2022-08-31T13:56:33.055Z,4.57
2022-08-31T13:59:38.693Z,5.75
2022-08-31T14:02:14.901Z,4.15
2022-08-31T14:04:50.697Z,4.75
2022-08-31T14:07:38.386Z,4.18
2022-08-31T14:10:24.703Z,4.63
2022-08-31T14:12:59.506Z,4.38
2022-08-31T14:15:41.688Z,4.57
2022-08-31T14:18:26.631Z,4.45
2022-08-31T14:21:20.683Z,4.43
2022-08-31T14:24:01.518Z,4.90
2022-08-31T14:26:49.758Z,4.10
2022-08-31T14:29:17.013Z,4.28
2022-08-31T14:31:58.743Z,3.83
2022-08-31T14:34:30.254Z,3.70
2022-08-31T14:37:12.719Z,4.32
2022-08-31T14:39:48.704Z,4.40
2022-08-31T14:42:49.742Z,4.50
2022-08-31T14:45:24.712Z,4.93
2022-08-31T14:47:51.699Z,4.05
2022-08-31T14:50:23.676Z,3.85
2022-08-31T14:52:57.710Z,5.32
2022-08-31T14:55:26.096Z,4.57
2022-08-31T14:58:06.772Z,4.20
2022-08-31T15:00:35.292Z,4.35
2022-08-31T15:03:02.191Z,4.43
2022-08-31T15:05:35.708Z,4.50
2022-08-31T15:08:09.715Z,4.00
2022-08-31T15:10:36.586Z,4.20
2022-08-31T15:13:09.822Z,5.25
2022-08-31T15:15:36.722Z,4.38
2022-08-31T15:18:03.843Z,4.68
2022-08-31T15:20:40.742Z,4.03
2022-08-31T15:23:07.888Z,4.38
2022-08-31T15:25:41.738Z,4.80
2022-08-31T15:28:08.657Z,4.38
2022-08-31T15:30:41.751Z,4.70
2022-08-31T15:33:08.685Z,4.07
2022-08-31T15:35:41.765Z,5.10
2022-08-31T15:38:15.735Z,4.60
2022-08-31T15:40:48.758Z,4.40
2022-08-31T15:43:15.690Z,4.63
2022-08-31T15:45:42.709Z,4.47
2022-08-31T15:48:15.742Z,4.60
2022-08-31T15:50:53.820Z,4.78
2022-08-31T15:53:27.777Z,4.57
2022-08-31T15:56:01.765Z,4.47
2022-08-31T15:58:28.958Z,4.60
2022-08-31T16:01:05.515Z,4.25
2022-08-31T16:03:35.210Z,4.70
2022-08-31T16:06:09.757Z,4.50
2022-08-31T16:08:39.465Z,4.05
2022-08-31T16:11:15.780Z,4.40
2022-08-31T16:13:43.190Z,4.68
2022-08-31T16:16:16.791Z,4.88
2022-08-31T16:18:45.498Z,4.97
2022-08-31T16:21:18.760Z,4.50
2022-08-31T16:23:53.765Z,4.40
2022-08-31T16:26:21.642Z,4.97
2022-08-31T16:28:54.804Z,4.68
2022-08-31T16:31:28.848Z,5.00
2022-08-31T16:34:02.807Z,4.78
2022-08-31T16:36:29.727Z,4.80
2022-08-31T16:39:02.814Z,5.03
2022-08-31T16:41:30.685Z,5.30
2022-08-31T16:44:19.005Z,5.07
2022-08-31T16:46:53.939Z,4.93
2022-08-31T16:49:20.918Z,4.88
2022-08-31T16:51:48.697Z,5.57
2022-08-31T16:54:22.850Z,4.80
2022-08-31T16:56:51.233Z,4.90
2022-08-31T16:59:19.125Z,4.47
2022-08-31T17:01:52.870Z,5.00
2022-08-31T17:04:35.071Z,4.80
2022-08-31T17:07:15.831Z,4.50
2022-08-31T17:09:42.949Z,4.88
2022-08-31T17:12:24.844Z,4.68
2022-08-31T17:14:51.754Z,4.97
2022-08-31T17:17:31.816Z,4.95
2022-08-31T17:19:59.484Z,5.28
2022-08-31T17:22:32.446Z,5.20
2022-08-31T17:25:09.844Z,5.20
2022-08-31T17:27:42.871Z,4.63
2022-08-31T17:30:18.854Z,5.35
2022-08-31T17:32:45.770Z,5.35
2022-08-31T17:35:14.527Z,5.38
2022-08-31T17:37:47.893Z,4.63
2022-08-31T17:40:20.900Z,5.53
2022-08-31T17:42:59.213Z,5.03
2022-08-31T17:45:26.636Z,4.85
2022-08-31T17:47:59.836Z,5.65
2022-08-31T17:50:32.851Z,5.82
2022-08-31T17:53:00.400Z,5.72
2022-08-31T17:55:33.867Z,5.07
2022-08-31T17:58:00.779Z,5.18
2022-08-31T18:00:33.951Z,5.57
2022-08-31T18:03:07.857Z,7.40
2022-08-31T18:05:34.768Z,7.30
2022-08-31T18:08:07.847Z,5.85
2022-08-31T18:10:34.744Z,5.53
2022-08-31T18:13:07.874Z,4.95
2022-08-31T18:15:35.081Z,5.43
2022-08-31T18:18:02.164Z,7.13
2022-08-31T18:20:35.876Z,5.20
2022-08-31T18:23:02.782Z,5.32
2022-08-31T18:25:38.881Z,6.25
2022-08-31T18:28:05.770Z,4.97
2022-08-31T18:30:39.906Z,4.75
2022-08-31T18:33:07.402Z,5.40
2022-08-31T18:35:51.888Z,5.40
2022-08-31T18:38:18.909Z,5.38
2022-08-31T18:40:52.923Z,5.15
2022-08-31T18:43:19.840Z,6.13
2022-08-31T18:45:50.056Z,4.88
2022-08-31T18:48:26.003Z,6.00
2022-08-31T18:50:59.914Z,5.93
2022-08-31T18:53:27.532Z,5.30
2022-08-31T18:56:15.885Z,5.07
2022-08-31T18:58:42.907Z,5.70
2022-08-31T19:01:16.991Z,5.32
2022-08-31T19:03:50.876Z,5.28
2022-08-31T19:06:23.884Z,5.00
2022-08-31T19:08:57.954Z,5.55
2022-08-31T19:11:24.945Z,5.45
2022-08-31T19:13:51.953Z,5.47
2022-08-31T19:16:33.980Z,7.00
2022-08-31T19:19:00.964Z,6.38
2022-08-31T19:21:32.247Z,5.80
2022-08-31T19:24:07.389Z,5.00
2022-08-31T19:26:52.076Z,6.05
2022-08-31T19:29:28.097Z,6.38
2022-08-31T19:31:56.511Z,8.00
2022-08-31T19:34:26.607Z,16.35
2022-08-31T19:36:59.944Z,31.33
2022-08-31T19:39:29.818Z,53.17
2022-08-31T19:42:05.948Z,93.57
2022-08-31T19:45:22.681Z,97.88
2022-08-31T19:47:27.889Z,74.65
2022-08-31T19:50:02.036Z,49.08
2022-08-31T19:52:36.014Z,33.13
2022-08-31T19:55:09.187Z,25.40
2022-08-31T19:57:43.007Z,26.77
2022-08-31T20:00:11.551Z,20.70
2022-08-31T20:02:45.071Z,19.70
2022-08-31T20:05:12.361Z,22.40
2022-08-31T20:07:46.050Z,19.90
2022-08-31T20:10:12.995Z,17.67
2022-08-31T20:12:46.018Z,15.57
2022-08-31T20:15:13.308Z,15.00
2022-08-31T20:17:46.967Z,11.45
2022-08-31T20:20:13.960Z,11.60
2022-08-31T20:22:47.968Z,13.75
2022-08-31T20:25:18.828Z,14.32
2022-08-31T20:27:59.007Z,12.23
2022-08-31T20:30:26.359Z,10.88
2022-08-31T20:32:53.376Z,10.57
2022-08-31T20:35:26.980Z,12.88
2022-08-31T20:37:53.988Z,10.05
2022-08-31T20:40:27.071Z,8.75
2022-08-31T20:43:03.077Z,8.77
2022-08-31T20:45:34.908Z,10.02
2022-08-31T20:48:11.987Z,8.70
2022-08-31T20:50:41.373Z,8.75
2022-08-31T20:53:42.498Z,8.60
2022-08-31T20:56:17.391Z,9.35
2022-08-31T20:58:52.017Z,10.02
2022-08-31T21:01:19.109Z,8.55
2022-08-31T21:03:52.975Z,10.18
2022-08-31T21:06:19.953Z,8.18
2022-08-31T21:08:56.577Z,8.48
2022-08-31T21:11:23.864Z,8.15
2022-08-31T21:13:57.070Z,7.93
2022-08-31T21:16:24.136Z,11.48
2022-08-31T21:18:51.300Z,10.35
2022-08-31T21:21:25.035Z,9.27
2022-08-31T21:23:52.125Z,8.52
2022-08-31T21:26:31.099Z,8.10
2022-08-31T21:29:18.364Z,8.85
2022-08-31T21:32:01.236Z,9.27
2022-08-31T21:34:30.547Z,9.18
2022-08-31T21:37:04.088Z,8.63
2022-08-31T21:39:38.050Z,8.85
2022-08-31T21:42:12.065Z,8.85
2022-08-31T21:44:39.115Z,9.07
2022-08-31T21:47:13.071Z,9.30
2022-08-31T21:52:30.098Z,9.38
2022-08-31T21:54:57.065Z,8.60
2022-08-31T22:00:25.053Z,8.80
2022-08-31T22:02:52.112Z,9.48
2022-08-31T22:05:29.186Z,9.70
2022-08-31T22:08:05.179Z,9.57
2022-08-31T22:12:51.145Z,8.88
2022-08-31T22:14:12.080Z,11.07
2022-08-31T22:16:46.042Z,11.25
2022-08-31T22:19:23.049Z,12.13
2022-08-31T22:21:52.820Z,12.38
2022-08-31T22:24:33.088Z,16.40
2022-08-31T22:27:02.425Z,11.90
2022-08-31T22:29:32.425Z,12.32
2022-08-31T22:32:09.061Z,11.23
2022-08-31T22:34:37.080Z,10.48
2022-08-31T22:37:11.153Z,13.30
2022-08-31T22:39:46.105Z,11.38
2022-08-31T22:42:19.086Z,13.25
2022-08-31T22:44:46.015Z,14.38
2022-08-31T22:47:19.062Z,21.13
2022-08-31T22:49:52.039Z,28.65
2022-08-31T22:52:19.035Z,27.77
2022-08-31T22:54:45.932Z,27.58
2022-08-31T22:57:20.102Z,25.95
2022-08-31T22:59:47.027Z,24.25
2022-08-31T23:02:13.918Z,23.15
2022-08-31T23:04:47.127Z,23.30
2022-08-31T23:07:21.075Z,23.75
2022-08-31T23:09:48.015Z,20.23
2022-08-31T23:12:21.102Z,20.98
2022-08-31T23:14:54.113Z,16.27
2022-08-31T23:17:21.113Z,16.63
2022-08-31T23:19:55.098Z,22.52
2022-08-31T23:22:24.714Z,29.90
2022-08-31T23:24:51.866Z,21.25
2022-08-31T23:27:27.186Z,18.35
2022-08-31T23:29:55.316Z,18.98
2022-08-31T23:32:25.268Z,16.52
2022-08-31T23:34:59.116Z,16.13
2022-08-31T23:37:33.134Z,14.35
2022-08-31T23:40:00.497Z,17.42
2022-08-31T23:42:27.857Z,16.55
2022-08-31T23:45:01.146Z,14.68
2022-08-31T23:47:31.444Z,14.95
2022-08-31T23:50:05.133Z,17.15
2022-08-31T23:52:32.112Z,13.35
2022-08-31T23:55:05.172Z,13.75
2022-08-31T23:57:33.660Z,14.77
